Terminal Aerodrome Forecast
Issued by NWS Albany, NY

Home | Current Version | Previous Version | Text Only | Print | Product List | Glossary On
Versions: 1 2 3 4 5 6 7 8 9 10 11 12 13 14 15 16 17 18 19 20 21 22 23 24 25 26 27 28
000
FTUS41 KALY 222339
TAFALB
TAF
KALB 222339Z 2300/2324 02005KT 6SM BR VCSH OVC008
     FM230300 04006KT 5SM BR VCSH SCT008 OVC015
     FM231400 05012G20KT P6SM OVC025
     FM232100 06014G23KT 4SM -RAPL OVC015=

USA.gov is the U.S. government's official web portal to all federal, state and local government web resources and services.